sensor_id;sensor_type;location;lat;lon;timestamp;temperature;humidity
28023;DHT22;67403;50.104;8.758;2023-05-07T00:02:27;15.70;99.90
28023;DHT22;67403;50.104;8.758;2023-05-07T00:04:55;15.70;99.90
28023;DHT22;67403;50.104;8.758;2023-05-07T00:07:21;15.60;99.90
28023;DHT22;67403;50.104;8.758;2023-05-07T00:09:48;15.60;99.90
28023;DHT22;67403;50.104;8.758;2023-05-07T00:12:15;15.60;99.90
28023;DHT22;67403;50.104;8.758;2023-05-07T00:14:42;15.60;99.90
28023;DHT22;67403;50.104;8.758;2023-05-07T00:17:10;15.60;99.90
28023;DHT22;67403;50.104;8.758;2023-05-07T00:19:37;15.50;99.90
28023;DHT22;67403;50.104;8.758;2023-05-07T00:22:04;15.50;99.90
28023;DHT22;67403;50.104;8.758;2023-05-07T00:24:56;15.50;99.90
28023;DHT22;67403;50.104;8.758;2023-05-07T00:27:23;15.50;99.90
28023;DHT22;67403;50.104;8.758;2023-05-07T00:29:50;15.50;99.90
28023;DHT22;67403;50.104;8.758;2023-05-07T00:32:18;15.50;99.90
28023;DHT22;67403;50.104;8.758;2023-05-07T00:34:45;15.50;99.90
28023;DHT22;67403;50.104;8.758;2023-05-07T00:37:12;15.50;99.90
28023;DHT22;67403;50.104;8.758;2023-05-07T00:39:39;15.40;99.90
28023;DHT22;67403;50.104;8.758;2023-05-07T00:42:06;15.40;99.90
28023;DHT22;67403;50.104;8.758;2023-05-07T00:44:33;15.50;99.90
28023;DHT22;67403;50.104;8.758;2023-05-07T00:47:02;15.50;99.90
28023;DHT22;67403;50.104;8.758;2023-05-07T00:49:36;15.50;99.90
28023;DHT22;67403;50.104;8.758;2023-05-07T00:52:04;15.50;99.90
28023;DHT22;67403;50.104;8.758;2023-05-07T00:54:32;15.40;99.90
28023;DHT22;67403;50.104;8.758;2023-05-07T00:57:01;15.40;99.90
28023;DHT22;67403;50.104;8.758;2023-05-07T00:59:28;15.40;99.90
28023;DHT22;67403;50.104;8.758;2023-05-07T01:01:55;15.40;99.90
28023;DHT22;67403;50.104;8.758;2023-05-07T01:04:22;15.40;99.90
28023;DHT22;67403;50.104;8.758;2023-05-07T01:06:50;15.30;99.90
28023;DHT22;67403;50.104;8.758;2023-05-07T01:09:19;15.30;99.90
28023;DHT22;67403;50.104;8.758;2023-05-07T01:11:47;15.30;99.90
28023;DHT22;67403;50.104;8.758;2023-05-07T01:14:14;15.30;99.90
28023;DHT22;67403;50.104;8.758;2023-05-07T01:16:41;15.30;99.90
28023;DHT22;67403;50.104;8.758;2023-05-07T01:19:08;15.30;99.90
28023;DHT22;67403;50.104;8.758;2023-05-07T01:21:37;15.20;99.90
28023;DHT22;67403;50.104;8.758;2023-05-07T01:24:06;15.20;99.90
28023;DHT22;67403;50.104;8.758;2023-05-07T01:26:34;15.20;99.90
28023;DHT22;67403;50.104;8.758;2023-05-07T01:29:01;15.20;99.90
28023;DHT22;67403;50.104;8.758;2023-05-07T01:31:27;15.20;99.90
28023;DHT22;67403;50.104;8.758;2023-05-07T01:33:56;15.20;99.90
28023;DHT22;67403;50.104;8.758;2023-05-07T01:36:24;15.10;99.90
28023;DHT22;67403;50.104;8.758;2023-05-07T01:38:53;15.10;99.90
28023;DHT22;67403;50.104;8.758;2023-05-07T01:41:21;15.00;99.90
28023;DHT22;67403;50.104;8.758;2023-05-07T01:43:50;15.10;99.90
28023;DHT22;67403;50.104;8.758;2023-05-07T01:46:17;15.10;99.90
28023;DHT22;67403;50.104;8.758;2023-05-07T01:48:45;15.10;99.90
28023;DHT22;67403;50.104;8.758;2023-05-07T01:51:12;15.10;99.90
28023;DHT22;67403;50.104;8.758;2023-05-07T01:53:39;15.10;99.90
28023;DHT22;67403;50.104;8.758;2023-05-07T01:56:07;15.10;99.90
28023;DHT22;67403;50.104;8.758;2023-05-07T01:58:36;15.10;99.90
28023;DHT22;67403;50.104;8.758;2023-05-07T02:01:02;15.10;99.90
28023;DHT22;67403;50.104;8.758;2023-05-07T02:03:29;15.10;99.90
28023;DHT22;67403;50.104;8.758;2023-05-07T02:05:56;15.00;99.90
28023;DHT22;67403;50.104;8.758;2023-05-07T02:08:23;15.00;99.90
28023;DHT22;67403;50.104;8.758;2023-05-07T02:10:50;15.00;99.90
28023;DHT22;67403;50.104;8.758;2023-05-07T02:13:17;15.00;99.90
28023;DHT22;67403;50.104;8.758;2023-05-07T02:15:46;15.00;99.90
28023;DHT22;67403;50.104;8.758;2023-05-07T02:18:16;15.00;99.90
28023;DHT22;67403;50.104;8.758;2023-05-07T02:20:43;15.00;99.90
28023;DHT22;67403;50.104;8.758;2023-05-07T02:23:10;15.00;99.90
28023;DHT22;67403;50.104;8.758;2023-05-07T02:25:37;15.00;99.90
28023;DHT22;67403;50.104;8.758;2023-05-07T02:28:04;15.00;99.90
28023;DHT22;67403;50.104;8.758;2023-05-07T02:30:31;15.00;99.90
28023;DHT22;67403;50.104;8.758;2023-05-07T02:33:00;14.90;99.90
28023;DHT22;67403;50.104;8.758;2023-05-07T02:35:27;14.90;99.90
28023;DHT22;67403;50.104;8.758;2023-05-07T02:37:53;14.90;99.90
28023;DHT22;67403;50.104;8.758;2023-05-07T02:40:21;14.90;99.90
28023;DHT22;67403;50.104;8.758;2023-05-07T02:42:47;14.90;99.90
28023;DHT22;67403;50.104;8.758;2023-05-07T02:45:14;14.90;99.90
28023;DHT22;67403;50.104;8.758;2023-05-07T02:47:41;14.90;99.90
28023;DHT22;67403;50.104;8.758;2023-05-07T02:50:10;14.90;99.90
28023;DHT22;67403;50.104;8.758;2023-05-07T02:52:37;14.80;99.90
28023;DHT22;67403;50.104;8.758;2023-05-07T02:55:05;14.80;99.90
28023;DHT22;67403;50.104;8.758;2023-05-07T02:57:32;14.80;99.90
28023;DHT22;67403;50.104;8.758;2023-05-07T02:59:59;14.80;99.90
28023;DHT22;67403;50.104;8.758;2023-05-07T03:02:26;14.80;99.90
28023;DHT22;67403;50.104;8.758;2023-05-07T03:04:53;14.80;99.90
28023;DHT22;67403;50.104;8.758;2023-05-07T03:07:21;14.80;99.90
28023;DHT22;67403;50.104;8.758;2023-05-07T03:09:48;14.80;99.90
28023;DHT22;67403;50.104;8.758;2023-05-07T03:12:15;14.80;99.90
28023;DHT22;67403;50.104;8.758;2023-05-07T03:14:42;14.80;99.90
28023;DHT22;67403;50.104;8.758;2023-05-07T03:17:08;14.80;99.90
28023;DHT22;67403;50.104;8.758;2023-05-07T03:19:35;14.80;99.90
28023;DHT22;67403;50.104;8.758;2023-05-07T03:22:02;14.80;99.90
28023;DHT22;67403;50.104;8.758;2023-05-07T03:24:30;14.80;99.90
28023;DHT22;67403;50.104;8.758;2023-05-07T03:26:57;14.70;99.90
28023;DHT22;67403;50.104;8.758;2023-05-07T03:29:24;14.80;99.90
28023;DHT22;67403;50.104;8.758;2023-05-07T03:31:51;14.80;99.90
28023;DHT22;67403;50.104;8.758;2023-05-07T03:34:18;14.80;99.90
28023;DHT22;67403;50.104;8.758;2023-05-07T03:36:47;14.70;99.90
28023;DHT22;67403;50.104;8.758;2023-05-07T03:39:14;14.80;99.90
28023;DHT22;67403;50.104;8.758;2023-05-07T03:41:42;14.80;99.90
28023;DHT22;67403;50.104;8.758;2023-05-07T03:44:09;14.80;99.90
28023;DHT22;67403;50.104;8.758;2023-05-07T03:46:36;14.70;99.90
28023;DHT22;67403;50.104;8.758;2023-05-07T03:49:03;14.70;99.90
28023;DHT22;67403;50.104;8.758;2023-05-07T03:51:30;14.70;99.90
28023;DHT22;67403;50.104;8.758;2023-05-07T03:53:57;14.70;99.90
28023;DHT22;67403;50.104;8.758;2023-05-07T03:56:24;14.70;99.90
28023;DHT22;67403;50.104;8.758;2023-05-07T03:58:53;14.70;99.90
28023;DHT22;67403;50.104;8.758;2023-05-07T04:01:20;14.70;99.90
28023;DHT22;67403;50.104;8.758;2023-05-07T04:03:47;14.70;99.90
28023;DHT22;67403;50.104;8.758;2023-05-07T04:06:15;14.70;99.90
28023;DHT22;67403;50.104;8.758;2023-05-07T04:08:42;14.70;99.90
28023;DHT22;67403;50.104;8.758;2023-05-07T04:11:09;14.60;99.90
28023;DHT22;67403;50.104;8.758;2023-05-07T04:13:36;14.60;99.90
28023;DHT22;67403;50.104;8.758;2023-05-07T04:16:05;14.60;99.90
28023;DHT22;67403;50.104;8.758;2023-05-07T04:18:32;14.60;99.90
28023;DHT22;67403;50.104;8.758;2023-05-07T04:20:59;14.50;99.90
28023;DHT22;67403;50.104;8.758;2023-05-07T04:23:26;14.50;99.90
28023;DHT22;67403;50.104;8.758;2023-05-07T04:25:53;14.50;99.90
28023;DHT22;67403;50.104;8.758;2023-05-07T04:28:20;14.50;99.90
28023;DHT22;67403;50.104;8.758;2023-05-07T04:30:47;14.50;99.90
28023;DHT22;67403;50.104;8.758;2023-05-07T04:33:15;14.50;99.90
28023;DHT22;67403;50.104;8.758;2023-05-07T04:35:43;14.60;99.90
28023;DHT22;67403;50.104;8.758;2023-05-07T04:38:10;14.60;99.90
28023;DHT22;67403;50.104;8.758;2023-05-07T04:40:37;14.60;99.90
28023;DHT22;67403;50.104;8.758;2023-05-07T04:43:04;14.70;99.90
28023;DHT22;67403;50.104;8.758;2023-05-07T04:45:31;14.80;99.90
28023;DHT22;67403;50.104;8.758;2023-05-07T04:47:58;14.70;99.90
28023;DHT22;67403;50.104;8.758;2023-05-07T04:50:26;14.70;99.90
28023;DHT22;67403;50.104;8.758;2023-05-07T04:52:53;14.70;99.90
28023;DHT22;67403;50.104;8.758;2023-05-07T04:55:20;14.80;99.90
28023;DHT22;67403;50.104;8.758;2023-05-07T04:57:47;14.90;99.90
28023;DHT22;67403;50.104;8.758;2023-05-07T05:00:14;14.90;99.90
28023;DHT22;67403;50.104;8.758;2023-05-07T05:02:42;14.90;99.90
28023;DHT22;67403;50.104;8.758;2023-05-07T05:05:09;14.80;99.90
28023;DHT22;67403;50.104;8.758;2023-05-07T05:07:37;14.90;99.90
28023;DHT22;67403;50.104;8.758;2023-05-07T05:10:05;14.90;99.90
28023;DHT22;67403;50.104;8.758;2023-05-07T05:12:32;15.00;99.90
28023;DHT22;67403;50.104;8.758;2023-05-07T05:14:59;15.00;99.90
28023;DHT22;67403;50.104;8.758;2023-05-07T05:17:26;15.00;99.90
28023;DHT22;67403;50.104;8.758;2023-05-07T05:19:53;15.00;99.90
28023;DHT22;67403;50.104;8.758;2023-05-07T05:22:21;15.00;99.90
28023;DHT22;67403;50.104;8.758;2023-05-07T05:24:49;15.00;99.90
28023;DHT22;67403;50.104;8.758;2023-05-07T05:27:16;15.00;99.90
28023;DHT22;67403;50.104;8.758;2023-05-07T05:29:43;15.00;99.90
28023;DHT22;67403;50.104;8.758;2023-05-07T05:32:09;15.20;99.90
28023;DHT22;67403;50.104;8.758;2023-05-07T05:34:36;15.20;99.90
28023;DHT22;67403;50.104;8.758;2023-05-07T05:37:03;15.30;99.90
28023;DHT22;67403;50.104;8.758;2023-05-07T05:39:30;15.40;99.90
28023;DHT22;67403;50.104;8.758;2023-05-07T05:41:58;15.50;99.90
28023;DHT22;67403;50.104;8.758;2023-05-07T05:44:25;15.60;99.90
28023;DHT22;67403;50.104;8.758;2023-05-07T05:46:52;15.60;99.90
28023;DHT22;67403;50.104;8.758;2023-05-07T05:49:20;15.60;99.90
28023;DHT22;67403;50.104;8.758;2023-05-07T05:51:47;15.60;99.90
28023;DHT22;67403;50.104;8.758;2023-05-07T05:54:14;15.60;99.90
28023;DHT22;67403;50.104;8.758;2023-05-07T05:56:41;15.50;99.90
28023;DHT22;67403;50.104;8.758;2023-05-07T05:59:10;15.60;99.90
28023;DHT22;67403;50.104;8.758;2023-05-07T06:01:37;15.80;99.90
28023;DHT22;67403;50.104;8.758;2023-05-07T06:04:04;15.90;99.90
28023;DHT22;67403;50.104;8.758;2023-05-07T06:06:31;15.80;99.90
28023;DHT22;67403;50.104;8.758;2023-05-07T06:08:58;15.80;99.90
28023;DHT22;67403;50.104;8.758;2023-05-07T06:11:25;15.80;99.90
28023;DHT22;67403;50.104;8.758;2023-05-07T06:13:52;15.70;99.90
28023;DHT22;67403;50.104;8.758;2023-05-07T06:16:20;15.90;99.90
28023;DHT22;67403;50.104;8.758;2023-05-07T06:18:47;15.90;99.90
28023;DHT22;67403;50.104;8.758;2023-05-07T06:21:14;16.10;99.90
28023;DHT22;67403;50.104;8.758;2023-05-07T06:23:41;16.30;99.90
28023;DHT22;67403;50.104;8.758;2023-05-07T06:26:08;16.30;99.90
28023;DHT22;67403;50.104;8.758;2023-05-07T06:28:35;16.20;99.90
28023;DHT22;67403;50.104;8.758;2023-05-07T06:31:12;16.00;99.90
28023;DHT22;67403;50.104;8.758;2023-05-07T06:33:40;16.30;99.90
28023;DHT22;67403;50.104;8.758;2023-05-07T06:36:07;16.50;99.90
28023;DHT22;67403;50.104;8.758;2023-05-07T06:38:34;16.70;99.90
28023;DHT22;67403;50.104;8.758;2023-05-07T06:41:01;16.90;99.90
28023;DHT22;67403;50.104;8.758;2023-05-07T06:43:28;17.10;99.90
28023;DHT22;67403;50.104;8.758;2023-05-07T06:45:55;17.20;99.90
28023;DHT22;67403;50.104;8.758;2023-05-07T06:48:22;17.20;99.90
28023;DHT22;67403;50.104;8.758;2023-05-07T06:50:50;17.30;99.90
28023;DHT22;67403;50.104;8.758;2023-05-07T06:53:17;17.30;99.90
28023;DHT22;67403;50.104;8.758;2023-05-07T06:55:44;17.40;99.90
28023;DHT22;67403;50.104;8.758;2023-05-07T06:58:11;17.10;99.90
28023;DHT22;67403;50.104;8.758;2023-05-07T07:00:38;16.90;99.90
28023;DHT22;67403;50.104;8.758;2023-05-07T07:03:06;17.00;99.90
28023;DHT22;67403;50.104;8.758;2023-05-07T07:05:33;16.90;99.90
28023;DHT22;67403;50.104;8.758;2023-05-07T07:08:01;16.80;99.90
28023;DHT22;67403;50.104;8.758;2023-05-07T07:10:28;16.90;99.90
28023;DHT22;67403;50.104;8.758;2023-05-07T07:12:55;16.90;99.90
28023;DHT22;67403;50.104;8.758;2023-05-07T07:15:22;17.00;99.90
28023;DHT22;67403;50.104;8.758;2023-05-07T07:17:50;17.20;99.90
28023;DHT22;67403;50.104;8.758;2023-05-07T07:20:17;17.60;99.90
28023;DHT22;67403;50.104;8.758;2023-05-07T07:22:45;17.50;99.90
28023;DHT22;67403;50.104;8.758;2023-05-07T07:25:13;17.50;99.90
28023;DHT22;67403;50.104;8.758;2023-05-07T07:27:40;17.70;99.90
28023;DHT22;67403;50.104;8.758;2023-05-07T07:30:07;17.60;99.90
28023;DHT22;67403;50.104;8.758;2023-05-07T07:32:34;17.90;99.90
28023;DHT22;67403;50.104;8.758;2023-05-07T07:35:01;18.10;99.90
28023;DHT22;67403;50.104;8.758;2023-05-07T07:37:28;18.10;99.90
28023;DHT22;67403;50.104;8.758;2023-05-07T07:39:55;18.20;99.90
28023;DHT22;67403;50.104;8.758;2023-05-07T07:42:24;18.20;99.90
28023;DHT22;67403;50.104;8.758;2023-05-07T07:44:50;18.40;99.90
28023;DHT22;67403;50.104;8.758;2023-05-07T07:47:17;18.90;99.90
28023;DHT22;67403;50.104;8.758;2023-05-07T07:49:44;18.80;99.90
28023;DHT22;67403;50.104;8.758;2023-05-07T07:52:11;19.10;99.90
28023;DHT22;67403;50.104;8.758;2023-05-07T07:54:38;18.90;99.90
28023;DHT22;67403;50.104;8.758;2023-05-07T07:57:05;19.00;99.90
28023;DHT22;67403;50.104;8.758;2023-05-07T07:59:33;19.00;99.90
28023;DHT22;67403;50.104;8.758;2023-05-07T08:02:00;19.00;99.90
28023;DHT22;67403;50.104;8.758;2023-05-07T08:04:27;19.00;99.90
28023;DHT22;67403;50.104;8.758;2023-05-07T08:06:53;18.90;99.90
28023;DHT22;67403;50.104;8.758;2023-05-07T08:09:21;19.20;99.90
28023;DHT22;67403;50.104;8.758;2023-05-07T08:11:48;19.10;99.90
28023;DHT22;67403;50.104;8.758;2023-05-07T08:14:15;19.10;99.90
28023;DHT22;67403;50.104;8.758;2023-05-07T08:16:43;19.00;99.90
28023;DHT22;67403;50.104;8.758;2023-05-07T08:19:10;19.10;99.90
28023;DHT22;67403;50.104;8.758;2023-05-07T08:21:39;19.60;99.90
28023;DHT22;67403;50.104;8.758;2023-05-07T08:24:06;19.80;99.90
28023;DHT22;67403;50.104;8.758;2023-05-07T08:26:33;20.00;99.90
28023;DHT22;67403;50.104;8.758;2023-05-07T08:29:01;20.20;99.90
28023;DHT22;67403;50.104;8.758;2023-05-07T08:31:28;20.50;99.90
28023;DHT22;67403;50.104;8.758;2023-05-07T08:33:57;20.50;99.90
28023;DHT22;67403;50.104;8.758;2023-05-07T08:36:24;19.90;99.90
28023;DHT22;67403;50.104;8.758;2023-05-07T08:38:51;20.10;99.90
28023;DHT22;67403;50.104;8.758;2023-05-07T08:41:18;19.90;99.90
28023;DHT22;67403;50.104;8.758;2023-05-07T08:43:48;20.20;99.90
28023;DHT22;67403;50.104;8.758;2023-05-07T08:46:17;20.50;99.90
28023;DHT22;67403;50.104;8.758;2023-05-07T08:48:45;19.80;99.90
28023;DHT22;67403;50.104;8.758;2023-05-07T08:51:35;20.10;99.90
28023;DHT22;67403;50.104;8.758;2023-05-07T08:54:02;20.40;99.90
28023;DHT22;67403;50.104;8.758;2023-05-07T08:56:30;20.10;99.90
28023;DHT22;67403;50.104;8.758;2023-05-07T08:58:57;20.60;99.90
28023;DHT22;67403;50.104;8.758;2023-05-07T09:01:24;21.00;99.90
28023;DHT22;67403;50.104;8.758;2023-05-07T09:03:52;20.80;99.90
28023;DHT22;67403;50.104;8.758;2023-05-07T09:06:21;20.90;99.90
28023;DHT22;67403;50.104;8.758;2023-05-07T09:08:52;20.80;99.90
28023;DHT22;67403;50.104;8.758;2023-05-07T09:11:20;20.80;99.90
28023;DHT22;67403;50.104;8.758;2023-05-07T09:13:48;21.40;99.90
28023;DHT22;67403;50.104;8.758;2023-05-07T09:16:15;21.20;99.90
28023;DHT22;67403;50.104;8.758;2023-05-07T09:18:43;20.90;99.90
28023;DHT22;67403;50.104;8.758;2023-05-07T09:21:11;21.40;99.90
28023;DHT22;67403;50.104;8.758;2023-05-07T09:23:39;21.80;99.90
28023;DHT22;67403;50.104;8.758;2023-05-07T09:26:06;22.20;99.90
28023;DHT22;67403;50.104;8.758;2023-05-07T09:28:38;22.60;99.90
28023;DHT22;67403;50.104;8.758;2023-05-07T09:31:06;21.60;99.90
28023;DHT22;67403;50.104;8.758;2023-05-07T09:33:33;21.00;99.90
28023;DHT22;67403;50.104;8.758;2023-05-07T09:36:03;21.30;99.90
28023;DHT22;67403;50.104;8.758;2023-05-07T09:38:31;21.80;99.90
28023;DHT22;67403;50.104;8.758;2023-05-07T09:41:03;22.20;99.90
28023;DHT22;67403;50.104;8.758;2023-05-07T09:43:32;21.70;99.90
28023;DHT22;67403;50.104;8.758;2023-05-07T09:46:03;21.80;99.90
28023;DHT22;67403;50.104;8.758;2023-05-07T09:48:30;22.60;99.90
28023;DHT22;67403;50.104;8.758;2023-05-07T09:51:02;22.20;99.90
28023;DHT22;67403;50.104;8.758;2023-05-07T09:53:29;22.10;99.90
28023;DHT22;67403;50.104;8.758;2023-05-07T09:55:58;22.50;99.90
28023;DHT22;67403;50.104;8.758;2023-05-07T09:58:27;22.80;99.90
28023;DHT22;67403;50.104;8.758;2023-05-07T10:00:56;22.60;99.90
28023;DHT22;67403;50.104;8.758;2023-05-07T10:03:24;21.90;99.90
28023;DHT22;67403;50.104;8.758;2023-05-07T10:05:53;22.10;99.90
28023;DHT22;67403;50.104;8.758;2023-05-07T10:08:20;22.30;99.90
28023;DHT22;67403;50.104;8.758;2023-05-07T10:10:49;22.80;99.90
28023;DHT22;67403;50.104;8.758;2023-05-07T10:13:17;23.70;99.90
28023;DHT22;67403;50.104;8.758;2023-05-07T10:15:47;24.10;99.90
28023;DHT22;67403;50.104;8.758;2023-05-07T10:18:15;23.80;99.90
28023;DHT22;67403;50.104;8.758;2023-05-07T10:20:45;24.40;99.90
28023;DHT22;67403;50.104;8.758;2023-05-07T10:23:13;24.90;99.90
28023;DHT22;67403;50.104;8.758;2023-05-07T10:25:40;26.10;99.90
28023;DHT22;67403;50.104;8.758;2023-05-07T10:28:09;25.80;99.90
28023;DHT22;67403;50.104;8.758;2023-05-07T10:30:45;26.20;99.90
28023;DHT22;67403;50.104;8.758;2023-05-07T10:33:17;26.10;99.90
28023;DHT22;67403;50.104;8.758;2023-05-07T10:35:46;25.80;99.90
28023;DHT22;67403;50.104;8.758;2023-05-07T10:38:14;25.80;99.90
28023;DHT22;67403;50.104;8.758;2023-05-07T10:40:41;26.20;99.90
28023;DHT22;67403;50.104;8.758;2023-05-07T10:43:08;26.50;99.90
28023;DHT22;67403;50.104;8.758;2023-05-07T10:45:34;26.70;99.90
28023;DHT22;67403;50.104;8.758;2023-05-07T10:48:09;26.80;99.90
28023;DHT22;67403;50.104;8.758;2023-05-07T10:50:38;26.70;99.90
28023;DHT22;67403;50.104;8.758;2023-05-07T10:53:21;27.40;99.90
28023;DHT22;67403;50.104;8.758;2023-05-07T10:56:23;28.20;99.90
28023;DHT22;67403;50.104;8.758;2023-05-07T10:58:40;28.90;99.90
28023;DHT22;67403;50.104;8.758;2023-05-07T11:01:07;28.40;99.10
28023;DHT22;67403;50.104;8.758;2023-05-07T11:03:34;28.80;98.40
28023;DHT22;67403;50.104;8.758;2023-05-07T11:06:13;28.10;97.40
28023;DHT22;67403;50.104;8.758;2023-05-07T11:08:53;28.50;96.90
28023;DHT22;67403;50.104;8.758;2023-05-07T11:11:44;28.80;95.60
28023;DHT22;67403;50.104;8.758;2023-05-07T11:14:11;28.10;94.00
28023;DHT22;67403;50.104;8.758;2023-05-07T11:16:40;27.10;95.30
28023;DHT22;67403;50.104;8.758;2023-05-07T11:19:08;26.40;97.00
28023;DHT22;67403;50.104;8.758;2023-05-07T11:21:37;25.40;99.00
28023;DHT22;67403;50.104;8.758;2023-05-07T11:24:05;25.60;99.70
28023;DHT22;67403;50.104;8.758;2023-05-07T11:26:43;26.00;98.30
28023;DHT22;67403;50.104;8.758;2023-05-07T11:29:11;25.80;98.60
28023;DHT22;67403;50.104;8.758;2023-05-07T11:31:38;26.30;97.00
28023;DHT22;67403;50.104;8.758;2023-05-07T11:34:05;26.50;97.50
28023;DHT22;67403;50.104;8.758;2023-05-07T11:36:33;26.90;97.20
28023;DHT22;67403;50.104;8.758;2023-05-07T11:39:01;26.50;97.10
28023;DHT22;67403;50.104;8.758;2023-05-07T11:41:35;26.40;96.30
28023;DHT22;67403;50.104;8.758;2023-05-07T11:44:03;27.40;95.50
28023;DHT22;67403;50.104;8.758;2023-05-07T11:46:30;27.20;95.00
28023;DHT22;67403;50.104;8.758;2023-05-07T11:48:57;26.30;96.10
28023;DHT22;67403;50.104;8.758;2023-05-07T11:51:24;26.40;97.90
28023;DHT22;67403;50.104;8.758;2023-05-07T11:53:53;27.60;94.50
28023;DHT22;67403;50.104;8.758;2023-05-07T11:56:21;28.00;93.20
28023;DHT22;67403;50.104;8.758;2023-05-07T11:58:48;28.20;92.30
28023;DHT22;67403;50.104;8.758;2023-05-07T12:01:17;28.30;90.30
28023;DHT22;67403;50.104;8.758;2023-05-07T12:03:45;28.50;89.20
28023;DHT22;67403;50.104;8.758;2023-05-07T12:06:14;28.30;90.80
28023;DHT22;67403;50.104;8.758;2023-05-07T12:08:41;29.10;90.00
28023;DHT22;67403;50.104;8.758;2023-05-07T12:11:11;29.90;83.20
28023;DHT22;67403;50.104;8.758;2023-05-07T12:13:41;29.20;84.60
28023;DHT22;67403;50.104;8.758;2023-05-07T12:16:09;30.10;78.70
28023;DHT22;67403;50.104;8.758;2023-05-07T12:18:37;30.30;77.60
28023;DHT22;67403;50.104;8.758;2023-05-07T12:21:05;30.10;78.30
28023;DHT22;67403;50.104;8.758;2023-05-07T12:23:34;30.00;80.20
28023;DHT22;67403;50.104;8.758;2023-05-07T12:26:01;30.80;78.00
28023;DHT22;67403;50.104;8.758;2023-05-07T12:28:28;29.50;78.40
28023;DHT22;67403;50.104;8.758;2023-05-07T12:30:57;30.60;77.70
28023;DHT22;67403;50.104;8.758;2023-05-07T12:33:26;29.90;76.30
28023;DHT22;67403;50.104;8.758;2023-05-07T12:35:55;31.40;69.80
28023;DHT22;67403;50.104;8.758;2023-05-07T12:38:22;31.80;67.00
28023;DHT22;67403;50.104;8.758;2023-05-07T12:40:50;32.50;63.20
28023;DHT22;67403;50.104;8.758;2023-05-07T12:43:18;31.40;63.20
28023;DHT22;67403;50.104;8.758;2023-05-07T12:45:45;31.70;64.10
28023;DHT22;67403;50.104;8.758;2023-05-07T12:48:14;30.20;67.30
28023;DHT22;67403;50.104;8.758;2023-05-07T12:50:41;29.30;68.80
28023;DHT22;67403;50.104;8.758;2023-05-07T12:53:11;29.20;70.10
28023;DHT22;67403;50.104;8.758;2023-05-07T12:55:42;29.80;68.30
28023;DHT22;67403;50.104;8.758;2023-05-07T12:58:17;29.40;68.70
28023;DHT22;67403;50.104;8.758;2023-05-07T13:00:47;27.90;72.50
28023;DHT22;67403;50.104;8.758;2023-05-07T13:03:23;27.20;74.80
28023;DHT22;67403;50.104;8.758;2023-05-07T13:05:50;29.00;71.10
28023;DHT22;67403;50.104;8.758;2023-05-07T13:08:28;29.90;66.40
28023;DHT22;67403;50.104;8.758;2023-05-07T13:10:56;28.70;70.30
28023;DHT22;67403;50.104;8.758;2023-05-07T13:13:23;27.90;73.00
28023;DHT22;67403;50.104;8.758;2023-05-07T13:15:50;28.20;71.10
28023;DHT22;67403;50.104;8.758;2023-05-07T13:18:17;28.00;73.30
28023;DHT22;67403;50.104;8.758;2023-05-07T13:20:45;28.20;69.70
28023;DHT22;67403;50.104;8.758;2023-05-07T13:23:12;28.00;69.20
28023;DHT22;67403;50.104;8.758;2023-05-07T13:25:39;27.80;69.60
28023;DHT22;67403;50.104;8.758;2023-05-07T13:28:06;27.70;68.90
28023;DHT22;67403;50.104;8.758;2023-05-07T13:30:33;28.20;70.00
28023;DHT22;67403;50.104;8.758;2023-05-07T13:33:00;28.20;71.30
28023;DHT22;67403;50.104;8.758;2023-05-07T13:35:27;28.00;69.30
28023;DHT22;67403;50.104;8.758;2023-05-07T13:37:55;27.70;70.70
28023;DHT22;67403;50.104;8.758;2023-05-07T13:40:22;27.00;70.40
28023;DHT22;67403;50.104;8.758;2023-05-07T13:42:51;26.40;72.50
28023;DHT22;67403;50.104;8.758;2023-05-07T13:45:18;26.00;75.60
28023;DHT22;67403;50.104;8.758;2023-05-07T13:47:46;26.20;78.60
28023;DHT22;67403;50.104;8.758;2023-05-07T13:50:14;26.00;82.70
28023;DHT22;67403;50.104;8.758;2023-05-07T13:52:42;25.50;86.00
28023;DHT22;67403;50.104;8.758;2023-05-07T13:55:12;25.40;88.70
28023;DHT22;67403;50.104;8.758;2023-05-07T13:57:40;26.00;84.90
28023;DHT22;67403;50.104;8.758;2023-05-07T14:00:08;26.20;83.90
28023;DHT22;67403;50.104;8.758;2023-05-07T14:02:35;25.60;86.80
28023;DHT22;67403;50.104;8.758;2023-05-07T14:05:02;25.40;89.20
28023;DHT22;67403;50.104;8.758;2023-05-07T14:07:29;25.60;90.20
28023;DHT22;67403;50.104;8.758;2023-05-07T14:09:57;25.60;90.50
28023;DHT22;67403;50.104;8.758;2023-05-07T14:12:25;26.00;90.30
28023;DHT22;67403;50.104;8.758;2023-05-07T14:14:52;25.90;89.00
28023;DHT22;67403;50.104;8.758;2023-05-07T14:17:19;24.90;91.00
28023;DHT22;67403;50.104;8.758;2023-05-07T14:19:48;24.90;91.20
28023;DHT22;67403;50.104;8.758;2023-05-07T14:22:15;24.50;92.20
28023;DHT22;67403;50.104;8.758;2023-05-07T14:24:42;24.60;92.90
28023;DHT22;67403;50.104;8.758;2023-05-07T14:27:09;24.60;92.60
28023;DHT22;67403;50.104;8.758;2023-05-07T14:29:37;24.60;93.40
28023;DHT22;67403;50.104;8.758;2023-05-07T14:32:04;24.40;94.30
28023;DHT22;67403;50.104;8.758;2023-05-07T14:34:32;24.50;95.40
28023;DHT22;67403;50.104;8.758;2023-05-07T14:36:59;24.50;96.50
28023;DHT22;67403;50.104;8.758;2023-05-07T14:39:27;24.40;97.20
28023;DHT22;67403;50.104;8.758;2023-05-07T14:41:53;24.30;96.30
28023;DHT22;67403;50.104;8.758;2023-05-07T14:44:21;24.30;96.70
28023;DHT22;67403;50.104;8.758;2023-05-07T14:46:50;24.40;96.80
28023;DHT22;67403;50.104;8.758;2023-05-07T14:49:17;24.60;95.50
28023;DHT22;67403;50.104;8.758;2023-05-07T14:51:44;24.80;94.10
28023;DHT22;67403;50.104;8.758;2023-05-07T14:54:11;25.70;92.80
28023;DHT22;67403;50.104;8.758;2023-05-07T14:56:38;26.20;91.90
28023;DHT22;67403;50.104;8.758;2023-05-07T14:59:06;26.20;90.50
28023;DHT22;67403;50.104;8.758;2023-05-07T15:01:34;25.40;90.70
28023;DHT22;67403;50.104;8.758;2023-05-07T15:04:03;25.10;91.90
28023;DHT22;67403;50.104;8.758;2023-05-07T15:06:30;25.10;92.40
28023;DHT22;67403;50.104;8.758;2023-05-07T15:08:57;25.20;92.40
28023;DHT22;67403;50.104;8.758;2023-05-07T15:11:24;24.90;92.90
28023;DHT22;67403;50.104;8.758;2023-05-07T15:13:51;24.50;93.70
28023;DHT22;67403;50.104;8.758;2023-05-07T15:16:18;24.50;93.50
28023;DHT22;67403;50.104;8.758;2023-05-07T15:18:45;24.00;94.50
28023;DHT22;67403;50.104;8.758;2023-05-07T15:21:14;23.90;95.10
28023;DHT22;67403;50.104;8.758;2023-05-07T15:23:41;23.90;95.30
28023;DHT22;67403;50.104;8.758;2023-05-07T15:26:09;23.70;96.00
28023;DHT22;67403;50.104;8.758;2023-05-07T15:28:36;23.80;96.30
28023;DHT22;67403;50.104;8.758;2023-05-07T15:31:03;23.60;96.10
28023;DHT22;67403;50.104;8.758;2023-05-07T15:33:30;23.50;96.60
28023;DHT22;67403;50.104;8.758;2023-05-07T15:35:57;23.50;96.80